sensor_id;sensor_type;location;lat;lon;timestamp;temperature;humidity
11152;DHT22;5630;49.342;10.802;2023-03-03T00:02:19;2.90;99.90
11152;DHT22;5630;49.342;10.802;2023-03-03T00:04:44;2.90;99.90
11152;DHT22;5630;49.342;10.802;2023-03-03T00:07:10;2.90;99.90
11152;DHT22;5630;49.342;10.802;2023-03-03T00:09:36;2.80;99.90
11152;DHT22;5630;49.342;10.802;2023-03-03T00:12:19;2.80;99.90
11152;DHT22;5630;49.342;10.802;2023-03-03T00:14:45;2.80;99.90
11152;DHT22;5630;49.342;10.802;2023-03-03T00:17:32;2.70;99.90
11152;DHT22;5630;49.342;10.802;2023-03-03T00:19:58;2.70;99.90
11152;DHT22;5630;49.342;10.802;2023-03-03T00:22:50;2.70;99.90
11152;DHT22;5630;49.342;10.802;2023-03-03T00:25:28;2.70;99.90
11152;DHT22;5630;49.342;10.802;2023-03-03T00:27:55;2.70;99.90
11152;DHT22;5630;49.342;10.802;2023-03-03T00:30:25;2.70;99.90
11152;DHT22;5630;49.342;10.802;2023-03-03T00:32:52;2.60;99.90
11152;DHT22;5630;49.342;10.802;2023-03-03T00:35:31;2.60;99.90
11152;DHT22;5630;49.342;10.802;2023-03-03T00:38:16;2.70;99.90
11152;DHT22;5630;49.342;10.802;2023-03-03T00:40:42;2.60;99.90
11152;DHT22;5630;49.342;10.802;2023-03-03T00:43:24;2.60;99.90
11152;DHT22;5630;49.342;10.802;2023-03-03T00:45:53;2.60;99.90
11152;DHT22;5630;49.342;10.802;2023-03-03T00:48:38;2.50;99.90
11152;DHT22;5630;49.342;10.802;2023-03-03T00:53:48;2.50;99.90
11152;DHT22;5630;49.342;10.802;2023-03-03T00:56:13;2.50;99.90
11152;DHT22;5630;49.342;10.802;2023-03-03T00:58:39;2.40;99.90
11152;DHT22;5630;49.342;10.802;2023-03-03T01:01:05;2.40;99.90
11152;DHT22;5630;49.342;10.802;2023-03-03T01:03:31;2.40;99.90
11152;DHT22;5630;49.342;10.802;2023-03-03T01:05:56;2.30;99.90
11152;DHT22;5630;49.342;10.802;2023-03-03T01:08:22;2.30;99.90
11152;DHT22;5630;49.342;10.802;2023-03-03T01:10:50;2.30;99.90
11152;DHT22;5630;49.342;10.802;2023-03-03T01:13:21;2.20;99.90
11152;DHT22;5630;49.342;10.802;2023-03-03T01:15:48;2.20;99.90
11152;DHT22;5630;49.342;10.802;2023-03-03T01:18:14;2.20;99.90
11152;DHT22;5630;49.342;10.802;2023-03-03T01:20:40;2.20;99.90
11152;DHT22;5630;49.342;10.802;2023-03-03T01:23:06;2.20;99.90
11152;DHT22;5630;49.342;10.802;2023-03-03T01:25:32;2.10;99.90
11152;DHT22;5630;49.342;10.802;2023-03-03T01:27:57;2.20;99.90
11152;DHT22;5630;49.342;10.802;2023-03-03T01:30:24;2.20;99.90
11152;DHT22;5630;49.342;10.802;2023-03-03T01:32:49;2.20;99.90
11152;DHT22;5630;49.342;10.802;2023-03-03T01:35:15;2.10;99.90
11152;DHT22;5630;49.342;10.802;2023-03-03T01:37:41;2.10;99.90
11152;DHT22;5630;49.342;10.802;2023-03-03T01:40:13;2.10;99.90
11152;DHT22;5630;49.342;10.802;2023-03-03T01:42:39;2.00;99.90
11152;DHT22;5630;49.342;10.802;2023-03-03T01:47:44;1.80;99.90
11152;DHT22;5630;49.342;10.802;2023-03-03T01:50:14;1.90;99.90
11152;DHT22;5630;49.342;10.802;2023-03-03T01:52:45;1.80;99.90
11152;DHT22;5630;49.342;10.802;2023-03-03T01:55:36;1.80;99.90
11152;DHT22;5630;49.342;10.802;2023-03-03T01:58:08;1.80;99.90
11152;DHT22;5630;49.342;10.802;2023-03-03T02:00:37;1.80;99.90
11152;DHT22;5630;49.342;10.802;2023-03-03T02:03:03;1.70;99.90
11152;DHT22;5630;49.342;10.802;2023-03-03T02:05:29;1.70;99.90
11152;DHT22;5630;49.342;10.802;2023-03-03T02:07:55;1.70;99.90
11152;DHT22;5630;49.342;10.802;2023-03-03T02:10:21;1.70;99.90
11152;DHT22;5630;49.342;10.802;2023-03-03T02:12:56;1.70;99.90
11152;DHT22;5630;49.342;10.802;2023-03-03T02:15:28;1.70;99.90
11152;DHT22;5630;49.342;10.802;2023-03-03T02:17:59;1.70;99.90
11152;DHT22;5630;49.342;10.802;2023-03-03T02:20:31;1.60;99.90
11152;DHT22;5630;49.342;10.802;2023-03-03T02:23:26;1.60;99.90
11152;DHT22;5630;49.342;10.802;2023-03-03T02:28:28;1.60;99.90
11152;DHT22;5630;49.342;10.802;2023-03-03T02:30:55;1.60;99.90
11152;DHT22;5630;49.342;10.802;2023-03-03T02:33:21;1.60;99.90
11152;DHT22;5630;49.342;10.802;2023-03-03T02:35:47;1.60;99.90
11152;DHT22;5630;49.342;10.802;2023-03-03T02:44:01;1.50;99.90
11152;DHT22;5630;49.342;10.802;2023-03-03T02:46:32;1.50;99.90
11152;DHT22;5630;49.342;10.802;2023-03-03T02:48:58;1.50;99.90
11152;DHT22;5630;49.342;10.802;2023-03-03T02:51:23;1.50;99.90
11152;DHT22;5630;49.342;10.802;2023-03-03T02:53:49;1.40;99.90
11152;DHT22;5630;49.342;10.802;2023-03-03T02:56:15;1.50;99.90
11152;DHT22;5630;49.342;10.802;2023-03-03T02:58:40;1.40;99.90
11152;DHT22;5630;49.342;10.802;2023-03-03T03:01:06;1.40;99.90
11152;DHT22;5630;49.342;10.802;2023-03-03T03:03:32;1.40;99.90
11152;DHT22;5630;49.342;10.802;2023-03-03T03:05:57;1.30;99.90
11152;DHT22;5630;49.342;10.802;2023-03-03T03:08:23;1.30;99.90
11152;DHT22;5630;49.342;10.802;2023-03-03T03:10:49;1.30;99.90
11152;DHT22;5630;49.342;10.802;2023-03-03T03:13:14;1.30;99.90
11152;DHT22;5630;49.342;10.802;2023-03-03T03:15:40;1.30;99.90
11152;DHT22;5630;49.342;10.802;2023-03-03T03:18:05;1.30;99.90
11152;DHT22;5630;49.342;10.802;2023-03-03T03:20:35;1.20;99.90
11152;DHT22;5630;49.342;10.802;2023-03-03T03:23:02;1.20;99.90
11152;DHT22;5630;49.342;10.802;2023-03-03T03:25:27;1.20;99.90
11152;DHT22;5630;49.342;10.802;2023-03-03T03:27:53;1.00;99.90
11152;DHT22;5630;49.342;10.802;2023-03-03T03:30:18;1.10;99.90
11152;DHT22;5630;49.342;10.802;2023-03-03T03:32:45;1.00;99.90
11152;DHT22;5630;49.342;10.802;2023-03-03T03:35:11;1.00;99.90
11152;DHT22;5630;49.342;10.802;2023-03-03T03:37:37;0.90;99.90
11152;DHT22;5630;49.342;10.802;2023-03-03T03:40:04;0.90;99.90
11152;DHT22;5630;49.342;10.802;2023-03-03T03:42:29;0.90;99.90
11152;DHT22;5630;49.342;10.802;2023-03-03T03:44:55;0.90;99.90
11152;DHT22;5630;49.342;10.802;2023-03-03T03:47:21;1.00;99.90
11152;DHT22;5630;49.342;10.802;2023-03-03T03:49:46;1.00;99.90
11152;DHT22;5630;49.342;10.802;2023-03-03T03:52:12;0.90;99.90
11152;DHT22;5630;49.342;10.802;2023-03-03T03:54:37;0.90;99.90
11152;DHT22;5630;49.342;10.802;2023-03-03T03:57:03;0.90;99.90
11152;DHT22;5630;49.342;10.802;2023-03-03T03:59:28;0.90;99.90
11152;DHT22;5630;49.342;10.802;2023-03-03T04:01:54;0.90;99.90
11152;DHT22;5630;49.342;10.802;2023-03-03T04:04:19;0.90;99.90
11152;DHT22;5630;49.342;10.802;2023-03-03T04:06:45;0.70;99.90
11152;DHT22;5630;49.342;10.802;2023-03-03T04:09:10;0.80;99.90
11152;DHT22;5630;49.342;10.802;2023-03-03T04:11:36;0.80;99.90
11152;DHT22;5630;49.342;10.802;2023-03-03T04:14:02;0.70;99.90
11152;DHT22;5630;49.342;10.802;2023-03-03T04:16:27;0.70;99.90
11152;DHT22;5630;49.342;10.802;2023-03-03T04:18:53;0.70;99.90
11152;DHT22;5630;49.342;10.802;2023-03-03T04:21:18;0.70;99.90
11152;DHT22;5630;49.342;10.802;2023-03-03T04:23:44;0.70;99.90
11152;DHT22;5630;49.342;10.802;2023-03-03T04:26:10;0.70;99.90
11152;DHT22;5630;49.342;10.802;2023-03-03T04:28:35;0.70;99.90
11152;DHT22;5630;49.342;10.802;2023-03-03T04:31:01;0.70;99.90
11152;DHT22;5630;49.342;10.802;2023-03-03T04:33:27;0.70;99.90
11152;DHT22;5630;49.342;10.802;2023-03-03T04:35:53;0.70;99.90
11152;DHT22;5630;49.342;10.802;2023-03-03T04:38:18;0.70;99.90
11152;DHT22;5630;49.342;10.802;2023-03-03T04:40:44;0.70;99.90
11152;DHT22;5630;49.342;10.802;2023-03-03T04:43:10;0.70;99.90
11152;DHT22;5630;49.342;10.802;2023-03-03T04:45:36;0.70;99.90
11152;DHT22;5630;49.342;10.802;2023-03-03T04:48:01;0.70;99.90
11152;DHT22;5630;49.342;10.802;2023-03-03T04:50:27;0.50;99.90
11152;DHT22;5630;49.342;10.802;2023-03-03T04:52:53;0.50;99.90
11152;DHT22;5630;49.342;10.802;2023-03-03T04:55:18;0.60;99.90
11152;DHT22;5630;49.342;10.802;2023-03-03T04:57:44;0.60;99.90
11152;DHT22;5630;49.342;10.802;2023-03-03T05:00:11;0.60;99.90
11152;DHT22;5630;49.342;10.802;2023-03-03T05:02:38;0.60;99.90
11152;DHT22;5630;49.342;10.802;2023-03-03T05:05:04;0.60;99.90
11152;DHT22;5630;49.342;10.802;2023-03-03T05:07:30;0.50;99.90
11152;DHT22;5630;49.342;10.802;2023-03-03T05:09:56;0.60;99.90
11152;DHT22;5630;49.342;10.802;2023-03-03T05:12:21;0.50;99.90
11152;DHT22;5630;49.342;10.802;2023-03-03T05:14:47;0.50;99.90
11152;DHT22;5630;49.342;10.802;2023-03-03T05:17:12;0.50;99.90
11152;DHT22;5630;49.342;10.802;2023-03-03T05:19:39;0.50;99.90
11152;DHT22;5630;49.342;10.802;2023-03-03T05:22:04;0.50;99.90
11152;DHT22;5630;49.342;10.802;2023-03-03T05:24:30;0.40;99.90
11152;DHT22;5630;49.342;10.802;2023-03-03T05:26:55;0.30;99.90
11152;DHT22;5630;49.342;10.802;2023-03-03T05:29:21;0.30;99.90
11152;DHT22;5630;49.342;10.802;2023-03-03T05:31:47;0.30;99.90
11152;DHT22;5630;49.342;10.802;2023-03-03T05:34:12;0.30;99.90
11152;DHT22;5630;49.342;10.802;2023-03-03T05:36:38;0.30;99.90
11152;DHT22;5630;49.342;10.802;2023-03-03T05:39:03;0.30;99.90
11152;DHT22;5630;49.342;10.802;2023-03-03T05:41:29;0.40;99.90
11152;DHT22;5630;49.342;10.802;2023-03-03T05:43:55;0.30;99.90
11152;DHT22;5630;49.342;10.802;2023-03-03T05:46:20;0.30;99.90
11152;DHT22;5630;49.342;10.802;2023-03-03T05:48:46;0.30;99.90
11152;DHT22;5630;49.342;10.802;2023-03-03T05:51:11;0.40;99.90
11152;DHT22;5630;49.342;10.802;2023-03-03T05:53:37;0.30;99.90
11152;DHT22;5630;49.342;10.802;2023-03-03T05:56:03;0.30;99.90
11152;DHT22;5630;49.342;10.802;2023-03-03T05:58:29;0.30;99.90
11152;DHT22;5630;49.342;10.802;2023-03-03T06:00:55;0.30;99.90
11152;DHT22;5630;49.342;10.802;2023-03-03T06:03:21;0.40;99.90
11152;DHT22;5630;49.342;10.802;2023-03-03T06:05:46;0.30;99.90
11152;DHT22;5630;49.342;10.802;2023-03-03T06:08:12;0.30;99.90
11152;DHT22;5630;49.342;10.802;2023-03-03T06:10:38;0.30;99.90
11152;DHT22;5630;49.342;10.802;2023-03-03T06:13:03;0.30;99.90
11152;DHT22;5630;49.342;10.802;2023-03-03T06:15:29;0.30;99.90
11152;DHT22;5630;49.342;10.802;2023-03-03T06:17:54;0.40;99.90
11152;DHT22;5630;49.342;10.802;2023-03-03T06:20:20;0.40;99.90
11152;DHT22;5630;49.342;10.802;2023-03-03T06:22:46;0.40;99.90
11152;DHT22;5630;49.342;10.802;2023-03-03T06:25:11;0.40;99.90
11152;DHT22;5630;49.342;10.802;2023-03-03T06:27:37;0.40;99.90
11152;DHT22;5630;49.342;10.802;2023-03-03T06:30:03;0.40;99.90
11152;DHT22;5630;49.342;10.802;2023-03-03T06:32:28;0.40;99.90
11152;DHT22;5630;49.342;10.802;2023-03-03T06:34:54;0.40;99.90
11152;DHT22;5630;49.342;10.802;2023-03-03T06:37:20;0.30;99.90
11152;DHT22;5630;49.342;10.802;2023-03-03T06:39:45;0.90;99.90
11152;DHT22;5630;49.342;10.802;2023-03-03T06:42:11;3.40;99.90
11152;DHT22;5630;49.342;10.802;2023-03-03T06:44:36;5.20;99.90
11152;DHT22;5630;49.342;10.802;2023-03-03T06:47:02;5.70;99.90
11152;DHT22;5630;49.342;10.802;2023-03-03T06:49:28;5.20;99.90
11152;DHT22;5630;49.342;10.802;2023-03-03T06:54:25;4.00;99.90
11152;DHT22;5630;49.342;10.802;2023-03-03T06:56:56;3.30;99.90
11152;DHT22;5630;49.342;10.802;2023-03-03T06:59:22;2.90;99.90
11152;DHT22;5630;49.342;10.802;2023-03-03T07:01:49;2.60;99.90
11152;DHT22;5630;49.342;10.802;2023-03-03T07:04:16;2.20;99.90
11152;DHT22;5630;49.342;10.802;2023-03-03T07:06:46;2.00;99.90
11152;DHT22;5630;49.342;10.802;2023-03-03T07:09:26;1.80;99.90
11152;DHT22;5630;49.342;10.802;2023-03-03T07:12:09;1.70;99.90
11152;DHT22;5630;49.342;10.802;2023-03-03T07:14:41;1.60;99.90
11152;DHT22;5630;49.342;10.802;2023-03-03T07:17:15;1.50;99.90
11152;DHT22;5630;49.342;10.802;2023-03-03T07:19:42;1.40;99.90
11152;DHT22;5630;49.342;10.802;2023-03-03T07:22:20;1.40;99.90
11152;DHT22;5630;49.342;10.802;2023-03-03T07:24:48;1.40;99.90
11152;DHT22;5630;49.342;10.802;2023-03-03T07:27:26;1.40;99.90
11152;DHT22;5630;49.342;10.802;2023-03-03T07:29:54;2.10;99.90
11152;DHT22;5630;49.342;10.802;2023-03-03T07:37:42;2.50;99.90
11152;DHT22;5630;49.342;10.802;2023-03-03T07:40:26;2.50;99.90
11152;DHT22;5630;49.342;10.802;2023-03-03T07:42:53;2.40;99.90
11152;DHT22;5630;49.342;10.802;2023-03-03T07:45:27;2.10;99.90
11152;DHT22;5630;49.342;10.802;2023-03-03T07:48:05;1.90;99.90
11152;DHT22;5630;49.342;10.802;2023-03-03T07:50:33;1.90;99.90
11152;DHT22;5630;49.342;10.802;2023-03-03T07:52:59;1.90;99.90
11152;DHT22;5630;49.342;10.802;2023-03-03T07:57:53;1.70;99.90
11152;DHT22;5630;49.342;10.802;2023-03-03T08:03:05;1.60;99.90
11152;DHT22;5630;49.342;10.802;2023-03-03T08:05:41;1.60;99.90
11152;DHT22;5630;49.342;10.802;2023-03-03T08:08:26;1.60;99.90
11152;DHT22;5630;49.342;10.802;2023-03-03T08:10:57;1.80;99.90
11152;DHT22;5630;49.342;10.802;2023-03-03T08:13:37;1.70;99.90
11152;DHT22;5630;49.342;10.802;2023-03-03T08:18:47;1.90;99.90
11152;DHT22;5630;49.342;10.802;2023-03-03T08:21:32;1.80;99.90
11152;DHT22;5630;49.342;10.802;2023-03-03T08:23:59;2.00;99.90
11152;DHT22;5630;49.342;10.802;2023-03-03T08:26:26;2.20;99.90
11152;DHT22;5630;49.342;10.802;2023-03-03T08:28:52;2.20;99.90
11152;DHT22;5630;49.342;10.802;2023-03-03T08:31:18;2.60;99.90
11152;DHT22;5630;49.342;10.802;2023-03-03T08:33:44;2.60;99.90
11152;DHT22;5630;49.342;10.802;2023-03-03T08:36:10;2.60;99.90
11152;DHT22;5630;49.342;10.802;2023-03-03T08:38:36;3.00;99.90
11152;DHT22;5630;49.342;10.802;2023-03-03T08:41:02;3.20;99.90
11152;DHT22;5630;49.342;10.802;2023-03-03T08:43:28;3.40;99.90
11152;DHT22;5630;49.342;10.802;2023-03-03T08:45:57;3.40;99.90
11152;DHT22;5630;49.342;10.802;2023-03-03T08:48:24;3.40;99.90
11152;DHT22;5630;49.342;10.802;2023-03-03T08:50:50;3.60;99.90
11152;DHT22;5630;49.342;10.802;2023-03-03T08:53:16;3.60;99.90
11152;DHT22;5630;49.342;10.802;2023-03-03T08:55:42;3.60;99.90
11152;DHT22;5630;49.342;10.802;2023-03-03T08:58:07;3.80;99.90
11152;DHT22;5630;49.342;10.802;2023-03-03T09:00:33;3.60;99.90
11152;DHT22;5630;49.342;10.802;2023-03-03T09:02:59;3.70;99.90
11152;DHT22;5630;49.342;10.802;2023-03-03T09:05:26;3.50;99.90
11152;DHT22;5630;49.342;10.802;2023-03-03T09:07:51;4.00;99.90
11152;DHT22;5630;49.342;10.802;2023-03-03T09:10:20;4.00;99.90
11152;DHT22;5630;49.342;10.802;2023-03-03T09:12:52;4.10;99.90
11152;DHT22;5630;49.342;10.802;2023-03-03T09:15:26;4.10;99.90
11152;DHT22;5630;49.342;10.802;2023-03-03T09:17:55;4.20;99.90
11152;DHT22;5630;49.342;10.802;2023-03-03T09:20:33;4.20;99.90
11152;DHT22;5630;49.342;10.802;2023-03-03T09:23:38;4.40;99.90
11152;DHT22;5630;49.342;10.802;2023-03-03T09:26:28;4.60;99.90
11152;DHT22;5630;49.342;10.802;2023-03-03T09:31:48;5.10;99.90
11152;DHT22;5630;49.342;10.802;2023-03-03T09:34:24;5.10;99.90
11152;DHT22;5630;49.342;10.802;2023-03-03T09:36:53;5.30;99.90
11152;DHT22;5630;49.342;10.802;2023-03-03T09:39:23;5.50;99.90
11152;DHT22;5630;49.342;10.802;2023-03-03T09:54:03;6.30;99.90
11152;DHT22;5630;49.342;10.802;2023-03-03T09:57:09;6.50;99.90
11152;DHT22;5630;49.342;10.802;2023-03-03T10:07:38;7.30;99.90
11152;DHT22;5630;49.342;10.802;2023-03-03T10:10:30;7.40;99.90
11152;DHT22;5630;49.342;10.802;2023-03-03T10:27:53;8.70;99.90
11152;DHT22;5630;49.342;10.802;2023-03-03T10:32:59;9.90;99.90
11152;DHT22;5630;49.342;10.802;2023-03-03T10:38:45;9.90;99.90
11152;DHT22;5630;49.342;10.802;2023-03-03T10:44:30;9.70;99.90
11152;DHT22;5630;49.342;10.802;2023-03-03T11:05:54;10.50;99.90
11152;DHT22;5630;49.342;10.802;2023-03-03T11:14:12;11.00;99.90
11152;DHT22;5630;49.342;10.802;2023-03-03T11:19:52;11.10;99.90
11152;DHT22;5630;49.342;10.802;2023-03-03T11:22:43;11.10;99.90
11152;DHT22;5630;49.342;10.802;2023-03-03T11:27:59;11.10;99.90
11152;DHT22;5630;49.342;10.802;2023-03-03T11:30:27;10.80;99.90
11152;DHT22;5630;49.342;10.802;2023-03-03T11:33:05;10.70;99.90
11152;DHT22;5630;49.342;10.802;2023-03-03T11:38:04;10.90;99.90
11152;DHT22;5630;49.342;10.802;2023-03-03T11:40:47;10.90;99.90
11152;DHT22;5630;49.342;10.802;2023-03-03T11:46:08;11.00;99.90
11152;DHT22;5630;49.342;10.802;2023-03-03T11:48:54;11.10;99.90
11152;DHT22;5630;49.342;10.802;2023-03-03T11:51:40;11.10;99.90
11152;DHT22;5630;49.342;10.802;2023-03-03T11:54:27;11.50;99.90
11152;DHT22;5630;49.342;10.802;2023-03-03T12:02:49;11.90;99.90
11152;DHT22;5630;49.342;10.802;2023-03-03T12:13:49;11.60;99.90
11152;DHT22;5630;49.342;10.802;2023-03-03T12:16:37;11.70;99.90
11152;DHT22;5630;49.342;10.802;2023-03-03T12:33:12;12.40;99.90
11152;DHT22;5630;49.342;10.802;2023-03-03T12:38:46;12.60;99.90
11152;DHT22;5630;49.342;10.802;2023-03-03T12:41:20;12.50;99.90
11152;DHT22;5630;49.342;10.802;2023-03-03T12:43:59;12.10;99.90
11152;DHT22;5630;49.342;10.802;2023-03-03T12:46:43;11.90;99.90
11152;DHT22;5630;49.342;10.802;2023-03-03T12:49:09;11.90;99.90
11152;DHT22;5630;49.342;10.802;2023-03-03T12:57:18;11.80;99.90
11152;DHT22;5630;49.342;10.802;2023-03-03T13:06:03;12.00;99.90
11152;DHT22;5630;49.342;10.802;2023-03-03T13:08:44;11.90;99.90
11152;DHT22;5630;49.342;10.802;2023-03-03T13:16:30;11.80;99.90
11152;DHT22;5630;49.342;10.802;2023-03-03T13:22:12;11.70;99.90
11152;DHT22;5630;49.342;10.802;2023-03-03T13:27:24;11.80;99.90
11152;DHT22;5630;49.342;10.802;2023-03-03T13:30:03;11.80;99.90
11152;DHT22;5630;49.342;10.802;2023-03-03T13:33:09;11.80;99.90
11152;DHT22;5630;49.342;10.802;2023-03-03T13:35:44;11.70;99.90
11152;DHT22;5630;49.342;10.802;2023-03-03T13:38:13;12.00;99.90
11152;DHT22;5630;49.342;10.802;2023-03-03T13:40:49;11.50;99.90
11152;DHT22;5630;49.342;10.802;2023-03-03T13:43:45;11.40;99.90
11152;DHT22;5630;49.342;10.802;2023-03-03T13:46:26;11.20;99.90
11152;DHT22;5630;49.342;10.802;2023-03-03T13:52:00;11.40;99.90
11152;DHT22;5630;49.342;10.802;2023-03-03T14:05:05;11.30;99.90
11152;DHT22;5630;49.342;10.802;2023-03-03T14:07:56;11.40;99.90
11152;DHT22;5630;49.342;10.802;2023-03-03T14:10:31;11.60;99.90
11152;DHT22;5630;49.342;10.802;2023-03-03T14:13:08;11.70;99.90
11152;DHT22;5630;49.342;10.802;2023-03-03T14:15:55;11.40;99.90
11152;DHT22;5630;49.342;10.802;2023-03-03T14:18:58;11.50;99.90
11152;DHT22;5630;49.342;10.802;2023-03-03T14:24:17;11.40;99.90
11152;DHT22;5630;49.342;10.802;2023-03-03T14:26:51;11.10;99.90
11152;DHT22;5630;49.342;10.802;2023-03-03T14:31:53;11.10;99.90
11152;DHT22;5630;49.342;10.802;2023-03-03T14:36:48;11.00;99.90
11152;DHT22;5630;49.342;10.802;2023-03-03T14:39:31;11.00;99.90
11152;DHT22;5630;49.342;10.802;2023-03-03T14:41:57;11.00;99.90
11152;DHT22;5630;49.342;10.802;2023-03-03T14:44:47;10.80;99.90
11152;DHT22;5630;49.342;10.802;2023-03-03T14:47:26;10.70;99.90
11152;DHT22;5630;49.342;10.802;2023-03-03T14:49:55;10.50;99.90
11152;DHT22;5630;49.342;10.802;2023-03-03T14:52:26;10.50;99.90
11152;DHT22;5630;49.342;10.802;2023-03-03T14:54:58;10.40;99.90
11152;DHT22;5630;49.342;10.802;2023-03-03T14:57:47;10.30;99.90
11152;DHT22;5630;49.342;10.802;2023-03-03T15:07:56;10.10;99.90
11152;DHT22;5630;49.342;10.802;2023-03-03T15:10:45;9.90;99.90
11152;DHT22;5630;49.342;10.802;2023-03-03T15:18:24;9.90;99.90
11152;DHT22;5630;49.342;10.802;2023-03-03T15:21:01;9.90;99.90
11152;DHT22;5630;49.342;10.802;2023-03-03T15:23:58;9.80;99.90
11152;DHT22;5630;49.342;10.802;2023-03-03T15:26:48;9.60;99.90
11152;DHT22;5630;49.342;10.802;2023-03-03T15:32:14;9.60;99.90
11152;DHT22;5630;49.342;10.802;2023-03-03T15:40:24;9.40;99.90
11152;DHT22;5630;49.342;10.802;2023-03-03T15:59:28;8.80;99.90
11152;DHT22;5630;49.342;10.802;2023-03-03T16:04:27;8.70;99.90
11152;DHT22;5630;49.342;10.802;2023-03-03T16:10:00;8.70;99.90
11152;DHT22;5630;49.342;10.802;2023-03-03T16:13:09;8.70;99.90
11152;DHT22;5630;49.342;10.802;2023-03-03T16:24:02;8.20;99.90
11152;DHT22;5630;49.342;10.802;2023-03-03T16:29:54;8.10;99.90
11152;DHT22;5630;49.342;10.802;2023-03-03T16:32:34;7.90;99.90
11152;DHT22;5630;49.342;10.802;2023-03-03T16:38:02;7.90;99.90
11152;DHT22;5630;49.342;10.802;2023-03-03T16:40:42;7.90;99.90
11152;DHT22;5630;49.342;10.802;2023-03-03T16:43:44;7.90;99.90
11152;DHT22;5630;49.342;10.802;2023-03-03T16:49:18;7.70;99.90
11152;DHT22;5630;49.342;10.802;2023-03-03T16:52:00;7.60;99.90
11152;DHT22;5630;49.342;10.802;2023-03-03T17:00:03;7.30;99.90
11152;DHT22;5630;49.342;10.802;2023-03-03T17:05:43;7.30;99.90
11152;DHT22;5630;49.342;10.802;2023-03-03T17:13:57;7.20;99.90
11152;DHT22;5630;49.342;10.802;2023-03-03T17:19:24;7.20;99.90
11152;DHT22;5630;49.342;10.802;2023-03-03T17:25:11;7.20;99.90
11152;DHT22;5630;49.342;10.802;2023-03-03T17:30:55;7.00;99.90
11152;DHT22;5630;49.342;10.802;2023-03-03T17:36:17;6.90;99.90
11152;DHT22;5630;49.342;10.802;2023-03-03T17:41:33;6.70;99.90
11152;DHT22;5630;49.342;10.802;2023-03-03T17:46:38;6.60;99.90
11152;DHT22;5630;49.342;10.802;2023-03-03T18:24:32;5.70;99.90
11152;DHT22;5630;49.342;10.802;2023-03-03T18:30:13;5.70;99.90
11152;DHT22;5630;49.342;10.802;2023-03-03T18:32:41;5.70;99.90
11152;DHT22;5630;49.342;10.802;2023-03-03T18:35:32;5.70;99.90
11152;DHT22;5630;49.342;10.802;2023-03-03T18:41:09;5.70;99.90
11152;DHT22;5630;49.342;10.802;2023-03-03T18:46:05;5.70;99.90
11152;DHT22;5630;49.342;10.802;2023-03-03T18:48:52;5.70;99.90
11152;DHT22;5630;49.342;10.802;2023-03-03T18:57:24;5.70;99.90
11152;DHT22;5630;49.342;10.802;2023-03-03T19:00:08;5.70;99.90
11152;DHT22;5630;49.342;10.802;2023-03-03T19:02:38;5.70;99.90
11152;DHT22;5630;49.342;10.802;2023-03-03T19:12:53;5.50;99.90
11152;DHT22;5630;49.342;10.802;2023-03-03T19:18:21;5.40;99.90
11152;DHT22;5630;49.342;10.802;2023-03-03T19:20:55;5.30;99.90
11152;DHT22;5630;49.342;10.802;2023-03-03T19:32:18;5.10;99.90
11152;DHT22;5630;49.342;10.802;2023-03-03T19:42:47;4.70;99.90
11152;DHT22;5630;49.342;10.802;2023-03-03T19:45:27;4.60;99.90
11152;DHT22;5630;49.342;10.802;2023-03-03T19:56:53;4.40;99.90
11152;DHT22;5630;49.342;10.802;2023-03-03T20:08:02;4.20;99.90
11152;DHT22;5630;49.342;10.802;2023-03-03T20:16:36;4.00;99.90
11152;DHT22;5630;49.342;10.802;2023-03-03T20:22:21;3.90;99.90
11152;DHT22;5630;49.342;10.802;2023-03-03T20:27:27;4.00;99.90
11152;DHT22;5630;49.342;10.802;2023-03-03T20:33:16;4.00;99.90
11152;DHT22;5630;49.342;10.802;2023-03-03T20:38:56;4.00;99.90
11152;DHT22;5630;49.342;10.802;2023-03-03T20:49:48;3.90;99.90
11152;DHT22;5630;49.342;10.802;2023-03-03T20:52:22;3.90;99.90
11152;DHT22;5630;49.342;10.802;2023-03-03T20:55:27;3.80;99.90
11152;DHT22;5630;49.342;10.802;2023-03-03T20:58:12;3.80;99.90
11152;DHT22;5630;49.342;10.802;2023-03-03T21:03:40;3.70;99.90
11152;DHT22;5630;49.342;10.802;2023-03-03T21:06:10;3.60;99.90
11152;DHT22;5630;49.342;10.802;2023-03-03T21:08:52;3.60;99.90
11152;DHT22;5630;49.342;10.802;2023-03-03T21:11:21;3.50;99.90
11152;DHT22;5630;49.342;10.802;2023-03-03T21:13:51;3.50;99.90
11152;DHT22;5630;49.342;10.802;2023-03-03T21:19:28;3.50;99.90
11152;DHT22;5630;49.342;10.802;2023-03-03T21:21:52;3.50;99.90
11152;DHT22;5630;49.342;10.802;2023-03-03T21:24:18;3.40;99.90
11152;DHT22;5630;49.342;10.802;2023-03-03T21:26:59;3.40;99.90
11152;DHT22;5630;49.342;10.802;2023-03-03T21:32:00;3.40;99.90
11152;DHT22;5630;49.342;10.802;2023-03-03T21:34:29;3.30;99.90
11152;DHT22;5630;49.342;10.802;2023-03-03T21:36:57;3.30;99.90
11152;DHT22;5630;49.342;10.802;2023-03-03T21:39:43;3.20;99.90
11152;DHT22;5630;49.342;10.802;2023-03-03T21:42:13;3.10;99.90
11152;DHT22;5630;49.342;10.802;2023-03-03T21:47:10;2.90;99.90
11152;DHT22;5630;49.342;10.802;2023-03-03T21:49:42;2.90;99.90
11152;DHT22;5630;49.342;10.802;2023-03-03T21:52:09;2.80;99.90
11152;DHT22;5630;49.342;10.802;2023-03-03T21:54:34;2.80;99.90
11152;DHT22;5630;49.342;10.802;2023-03-03T21:57:00;2.80;99.90
11152;DHT22;5630;49.342;10.802;2023-03-03T21:59:25;2.70;99.90
11152;DHT22;5630;49.342;10.802;2023-03-03T22:01:51;2.70;99.90
11152;DHT22;5630;49.342;10.802;2023-03-03T22:04:17;2.70;99.90
11152;DHT22;5630;49.342;10.802;2023-03-03T22:06:42;2.70;99.90
11152;DHT22;5630;49.342;10.802;2023-03-03T22:09:09;2.70;99.90
11152;DHT22;5630;49.342;10.802;2023-03-03T22:11:34;2.70;99.90
11152;DHT22;5630;49.342;10.802;2023-03-03T22:14:00;2.70;99.90
11152;DHT22;5630;49.342;10.802;2023-03-03T22:16:26;2.60;99.90
11152;DHT22;5630;49.342;10.802;2023-03-03T22:18:52;2.70;99.90
11152;DHT22;5630;49.342;10.802;2023-03-03T22:21:17;2.60;99.90
11152;DHT22;5630;49.342;10.802;2023-03-03T22:23:43;2.60;99.90
11152;DHT22;5630;49.342;10.802;2023-03-03T22:26:08;2.60;99.90
11152;DHT22;5630;49.342;10.802;2023-03-03T22:28:34;2.50;99.90
11152;DHT22;5630;49.342;10.802;2023-03-03T22:30:59;2.50;99.90
11152;DHT22;5630;49.342;10.802;2023-03-03T22:33:25;2.50;99.90
11152;DHT22;5630;49.342;10.802;2023-03-03T22:35:50;2.40;99.90
11152;DHT22;5630;49.342;10.802;2023-03-03T22:38:16;2.40;99.90
11152;DHT22;5630;49.342;10.802;2023-03-03T22:40:42;2.30;99.90
11152;DHT22;5630;49.342;10.802;2023-03-03T22:43:08;2.30;99.90
11152;DHT22;5630;49.342;10.802;2023-03-03T22:45:35;2.20;99.90
11152;DHT22;5630;49.342;10.802;2023-03-03T22:48:02;2.10;99.90
11152;DHT22;5630;49.342;10.802;2023-03-03T22:50:27;2.00;99.90
11152;DHT22;5630;49.342;10.802;2023-03-03T22:52:53;2.00;99.90
11152;DHT22;5630;49.342;10.802;2023-03-03T22:55:20;1.90;99.90
11152;DHT22;5630;49.342;10.802;2023-03-03T22:57:45;1.90;99.90
11152;DHT22;5630;49.342;10.802;2023-03-03T23:00:12;1.70;99.90
11152;DHT22;5630;49.342;10.802;2023-03-03T23:02:38;1.70;99.90